Time;durP1;ratioP1;P1;durP2;ratioP2;P2;SDS_P1;SDS_P2;PMS_P1;PMS_P2;Temp;Humidity;BMP_temperature;BMP_pressure;BME280_temperature;BME280_humidity;BME280_pressure;Samples;Min_cycle;Max_cycle;Signal;HPM_P1;HPM_P2
2023/01/18 05:02:14;;;;;;;13.30;10.43;;;;;;;7.91;93.76;97814.47;5606529;31;75681;-57
2023/01/18 05:05:17;;;;;;;13.55;10.45;;;;;;;7.91;93.76;97814.47;5570730;32;33492;-58
2023/01/18 05:08:19;;;;;;;14.13;9.55;;;;;;;7.42;95.37;97836.25;5564163;32;33757;-57
2023/01/18 05:11:22;;;;;;;15.05;8.95;;;;;;;7.39;95.56;97839.56;5572468;31;33497;-58
2023/01/18 05:14:24;;;;;;;11.90;8.57;;;;;;;7.40;95.15;97851.78;5583620;32;34351;-57
2023/01/18 05:17:29;;;;;;;9.45;7.40;;;;;;;7.54;94.56;97863.00;5582987;31;33637;-58
2023/01/18 05:20:31;;;;;;;7.72;6.40;;;;;;;7.44;94.39;97858.03;5583660;31;34299;-58
2023/01/18 05:23:33;;;;;;;8.57;6.10;;;;;;;7.49;93.27;97857.84;5583601;31;34228;-57
2023/01/18 05:26:35;;;;;;;8.43;6.45;;;;;;;7.38;94.68;97850.53;5581569;32;33580;-57
2023/01/18 05:29:38;;;;;;;8.07;6.55;;;;;;;7.37;93.46;97855.09;5583541;31;33199;-57
2023/01/18 05:32:40;;;;;;;8.55;6.32;;;;;;;7.32;94.30;97860.59;5578376;32;34259;-58
2023/01/18 05:35:51;;;;;;;7.20;4.97;;;;;;;7.37;95.92;97857.75;5564081;32;33588;-57
2023/01/18 05:38:53;;;;;;;6.87;5.05;;;;;;;7.37;92.22;97865.75;5573171;32;33648;-57
2023/01/18 05:41:56;;;;;;;7.28;5.20;;;;;;;7.45;95.87;97846.28;5583617;32;33716;-57
2023/01/18 05:45:01;;;;;;;9.10;5.75;;;;;;;7.40;93.08;97849.13;5583350;31;33942;-57
2023/01/18 05:48:03;;;;;;;6.07;4.20;;;;;;;7.32;93.01;97863.28;5583181;32;33591;-57
2023/01/18 05:51:08;;;;;;;4.97;3.60;;;;;;;7.24;91.60;97840.88;5582311;31;33605;-57
2023/01/18 05:54:10;;;;;;;4.78;2.70;;;;;;;7.28;91.31;97844.47;5582510;32;33613;-57
2023/01/18 05:57:13;;;;;;;2.58;1.87;;;;;;;7.38;92.28;97834.53;5576714;32;33622;-57
2023/01/18 06:00:16;;;;;;;1.67;1.33;;;;;;;7.15;88.68;97820.69;5573904;32;34297;-57
2023/01/18 06:03:18;;;;;;;2.17;1.60;;;;;;;7.02;89.15;97795.84;5581295;31;33725;-57
2023/01/18 06:06:20;;;;;;;2.35;1.52;;;;;;;7.01;89.37;97835.00;5570496;32;33792;-57
2023/01/18 06:09:23;;;;;;;2.95;1.70;;;;;;;6.85;89.66;97847.25;5563372;32;33692;-57
2023/01/18 06:12:25;;;;;;;1.83;1.30;;;;;;;6.80;90.92;97868.75;5565466;32;34421;-57
2023/01/18 06:15:27;;;;;;;2.47;1.30;;;;;;;7.00;92.30;97857.41;5568705;32;33606;-58
2023/01/18 06:18:31;;;;;;;2.92;1.55;;;;;;;6.96;93.29;97853.06;5569510;32;33686;-57
2023/01/18 06:21:34;;;;;;;1.87;1.65;;;;;;;7.11;92.18;97865.06;5569756;32;33729;-57
2023/01/18 06:24:36;;;;;;;2.85;1.95;;;;;;;7.13;90.78;97873.53;5570006;32;33289;-58
2023/01/18 06:27:38;;;;;;;2.78;1.87;;;;;;;7.11;91.03;97875.72;5569138;32;33228;-57
2023/01/18 06:30:41;;;;;;;2.53;1.80;;;;;;;7.43;100.00;97885.00;5570005;32;33651;-58
2023/01/18 06:33:44;;;;;;;3.95;2.12;;;;;;;7.31;100.00;97883.00;5568734;32;33742;-58
2023/01/18 06:36:46;;;;;;;7.15;2.92;;;;;;;7.50;100.00;97877.31;5568847;32;33609;-57
2023/01/18 06:39:48;;;;;;;3.97;2.17;;;;;;;7.34;100.00;97853.06;5569126;32;33789;-57
2023/01/18 06:42:51;;;;;;;4.37;2.65;;;;;;;7.69;100.00;97795.00;5569498;32;34208;-58
2023/01/18 06:45:55;;;;;;;4.60;2.20;;;;;;;7.50;95.48;97781.34;5569569;32;33286;-57
2023/01/18 06:48:57;;;;;;;3.08;2.22;;;;;;;7.29;90.94;97824.72;5568828;32;33312;-56
2023/01/18 06:51:59;;;;;;;4.60;2.40;;;;;;;7.09;91.97;97825.44;5567637;32;34306;-58
2023/01/18 06:55:02;;;;;;;3.75;2.75;;;;;;;7.00;90.73;97838.00;5568072;32;33603;-57
2023/01/18 06:58:04;;;;;;;4.90;2.85;;;;;;;6.86;91.41;97899.44;5569412;32;33616;-57
2023/01/18 07:01:07;;;;;;;4.80;3.08;;;;;;;6.88;100.00;97918.53;5563852;32;33667;-57
2023/01/18 07:04:09;;;;;;;6.22;3.35;;;;;;;7.00;100.00;97916.00;5553588;32;33639;-58
2023/01/18 07:07:13;;;;;;;5.30;3.28;;;;;;;6.93;91.69;97915.72;5568515;32;33648;-57
2023/01/18 07:10:15;;;;;;;6.82;2.85;;;;;;;6.84;91.30;97930.91;5569566;32;33822;-58
2023/01/18 07:13:18;;;;;;;4.68;3.00;;;;;;;6.71;91.37;97919.34;5569569;32;34341;-58
2023/01/18 07:16:21;;;;;;;4.55;2.70;;;;;;;6.76;92.78;97919.19;5569374;32;33583;-58
2023/01/18 07:19:23;;;;;;;6.25;3.22;;;;;;;6.73;92.82;97927.03;5565435;32;33677;-57
2023/01/18 07:22:25;;;;;;;5.05;3.40;;;;;;;6.86;98.87;97939.38;5567211;32;34332;-57
2023/01/18 07:25:28;;;;;;;7.37;3.55;;;;;;;6.85;94.28;97958.31;5567648;32;33594;-58
2023/01/18 07:28:32;;;;;;;5.60;3.17;;;;;;;6.92;99.67;97990.59;5567418;32;33568;-57
2023/01/18 07:31:36;;;;;;;7.05;3.40;;;;;;;6.76;90.67;98001.72;5566113;32;33776;-59
2023/01/18 07:34:39;;;;;;;7.12;3.33;;;;;;;6.76;100.00;97999.06;5564085;32;34485;-58
2023/01/18 07:37:42;;;;;;;6.40;3.08;;;;;;;6.66;89.93;97991.41;5566512;32;33729;-58
2023/01/18 07:40:45;;;;;;;6.15;3.70;;;;;;;6.59;88.41;97991.84;5566570;32;34328;-57
2023/01/18 07:43:48;;;;;;;4.43;3.42;;;;;;;6.46;88.01;97995.44;5568427;32;33343;-58
2023/01/18 07:46:50;;;;;;;4.53;3.50;;;;;;;6.45;88.79;98004.50;5556117;32;34517;-57
2023/01/18 07:49:52;;;;;;;5.65;3.85;;;;;;;6.43;88.50;98032.53;5567991;32;33589;-58
2023/01/18 07:52:55;;;;;;;5.57;3.17;;;;;;;6.58;97.23;98040.06;5567074;32;33123;-57
2023/01/18 07:55:59;;;;;;;6.20;3.83;;;;;;;6.53;91.71;98054.31;5561115;32;34334;-57
2023/01/18 07:59:02;;;;;;;6.97;3.70;;;;;;;6.87;94.52;98050.13;5568041;32;33900;-58
2023/01/18 08:02:07;;;;;;;4.68;3.35;;;;;;;6.78;92.09;98060.75;5568248;32;34375;-58
2023/01/18 08:05:10;;;;;;;7.03;3.80;;;;;;;6.68;88.51;98062.94;5566963;32;33560;-58
2023/01/18 08:08:14;;;;;;;5.62;3.78;;;;;;;6.44;88.64;98069.47;5567890;32;33590;-58
2023/01/18 08:11:18;;;;;;;5.15;3.58;;;;;;;6.42;90.98;98084.19;5567981;32;34280;-58
2023/01/18 08:14:20;;;;;;;3.58;2.70;;;;;;;6.56;88.55;98092.84;5567379;32;33714;-57
2023/01/18 08:17:22;;;;;;;3.22;2.33;;;;;;;6.56;94.18;98096.28;5567323;32;33354;-58
2023/01/18 08:20:24;;;;;;;5.30;2.50;;;;;;;6.58;89.89;98107.41;5567886;32;34238;-57
2023/01/18 08:23:27;;;;;;;3.92;2.45;;;;;;;6.59;92.27;98122.28;5568678;32;33732;-58
2023/01/18 08:26:30;;;;;;;2.90;2.15;;;;;;;6.79;93.74;98125.50;5567328;32;34486;-58
2023/01/18 08:29:33;;;;;;;3.28;2.30;;;;;;;6.64;87.89;98133.91;5565289;32;34414;-58
2023/01/18 08:32:36;;;;;;;3.50;2.00;;;;;;;6.71;89.58;98137.66;5567652;32;33742;-58
2023/01/18 08:35:41;;;;;;;2.35;1.70;;;;;;;6.82;97.51;98146.16;5558755;32;32106;-57
2023/01/18 08:38:58;;;;;;;1.85;1.50;;;;;;;6.91;93.94;98128.31;5561159;32;33660;-58
2023/01/18 08:42:00;;;;;;;1.87;1.30;;;;;;;6.92;87.67;98132.56;5567001;32;34267;-58
2023/01/18 08:45:04;;;;;;;1.27;1.17;;;;;;;7.10;100.00;98137.91;5566837;32;33780;-58
2023/01/18 08:48:09;;;;;;;1.60;1.30;;;;;;;7.02;95.03;98150.91;5568684;32;34547;-58
2023/01/18 08:51:11;;;;;;;2.22;1.50;;;;;;;7.16;94.75;98152.66;5567840;32;33621;-58
2023/01/18 08:54:14;;;;;;;1.90;1.40;;;;;;;7.21;92.28;98163.94;5568190;32;34398;-58
2023/01/18 08:57:16;;;;;;;2.17;1.35;;;;;;;7.30;94.17;98170.06;5568095;32;33667;-58
2023/01/18 09:00:18;;;;;;;4.12;1.75;;;;;;;7.25;89.76;98188.88;5566898;32;33583;-58
2023/01/18 09:03:21;;;;;;;2.67;1.40;;;;;;;7.46;98.55;98207.72;5566675;32;33676;-58
2023/01/18 09:06:24;;;;;;;2.03;1.50;;;;;;;7.26;88.74;98192.31;5567879;32;33622;-57
2023/01/18 09:09:26;;;;;;;1.67;1.00;;;;;;;7.24;86.16;98202.50;5567961;32;34470;-57
2023/01/18 09:12:28;;;;;;;1.83;1.10;;;;;;;7.15;85.91;98191.84;5567263;32;33659;-57
2023/01/18 09:15:33;;;;;;;1.40;1.10;;;;;;;7.15;84.23;98209.69;5568037;32;33873;-58
2023/01/18 09:18:37;;;;;;;1.15;1.05;;;;;;;7.17;95.67;98234.16;5560814;32;32486;-58
2023/01/18 09:21:39;;;;;;;1.60;1.23;;;;;;;7.22;89.31;98252.69;5556809;32;33745;-57
2023/01/18 09:24:41;;;;;;;2.00;1.65;;;;;;;7.05;88.15;98267.50;5563778;32;34317;-58
2023/01/18 09:27:45;;;;;;;2.00;1.40;;;;;;;7.13;90.29;98289.16;5548020;32;33584;-58
2023/01/18 09:30:48;;;;;;;3.72;1.33;;;;;;;7.19;91.06;98302.03;5547810;32;33557;-58
2023/01/18 09:33:50;;;;;;;2.53;1.23;;;;;;;7.16;88.23;98320.53;5552397;32;33760;-57
2023/01/18 09:36:55;;;;;;;2.37;1.30;;;;;;;6.99;86.62;98318.56;5567530;32;33589;-58
2023/01/18 09:39:59;;;;;;;1.70;1.15;;;;;;;6.98;92.26;98317.75;5565400;32;34364;-58
2023/01/18 09:43:02;;;;;;;1.83;1.42;;;;;;;7.16;88.27;98333.84;5567070;32;33753;-58
2023/01/18 09:46:15;;;;;;;3.05;1.35;;;;;;;7.48;98.83;98343.34;5567559;32;34387;-58
2023/01/18 09:49:24;;;;;;;4.53;1.70;;;;;;;7.34;88.90;98343.47;5569838;32;33233;-58
2023/01/18 09:52:31;;;;;;;2.97;1.90;;;;;;;7.25;88.14;98338.13;5569837;32;34337;-57
2023/01/18 09:55:55;;;;;;;3.97;2.25;;;;;;;7.22;87.32;98340.63;5569316;32;33647;-58
2023/01/18 09:59:20;;;;;;;2.62;1.70;;;;;;;7.27;90.02;98343.12;5569724;32;33686;-57
2023/01/18 10:02:28;;;;;;;3.95;1.92;;;;;;;7.41;93.79;98341.13;5568690;32;33567;-58
2023/01/18 10:05:36;;;;;;;2.62;1.90;;;;;;;7.42;86.84;98352.59;5569125;31;34358;-58
2023/01/18 10:08:52;;;;;;;2.95;2.12;;;;;;;7.42;90.51;98355.28;5568853;32;33758;-58
2023/01/18 10:12:13;;;;;;;3.45;2.42;;;;;;;7.53;89.89;98362.66;5568505;32;34545;-57
2023/01/18 10:15:19;;;;;;;4.05;3.00;;;;;;;7.59;91.29;98371.31;5569523;32;33835;-57
2023/01/18 10:18:23;;;;;;;5.70;4.00;;;;;;;7.77;95.17;98385.47;5569291;32;33638;-58
2023/01/18 10:21:55;;;;;;;4.97;3.62;;;;;;;7.91;90.53;98388.00;5568919;32;33819;-58
2023/01/18 10:25:00;;;;;;;5.32;3.83;;;;;;;7.84;87.46;98404.47;5568829;32;33854;-57
2023/01/18 10:28:05;;;;;;;7.03;3.83;;;;;;;7.98;90.24;98410.50;5559838;32;34362;-58
2023/01/18 10:31:25;;;;;;;6.05;3.53;;;;;;;7.92;87.78;98413.63;5565401;32;34281;-58
2023/01/18 10:34:33;;;;;;;5.30;3.22;;;;;;;8.00;86.75;98405.63;5569086;32;33878;-57
2023/01/18 10:37:44;;;;;;;5.20;3.20;;;;;;;7.88;86.42;98408.13;5568556;32;33774;-57
2023/01/18 10:41:04;;;;;;;5.18;2.55;;;;;;;7.71;84.94;98408.06;5569055;32;34356;-58
2023/01/18 10:44:08;;;;;;;4.00;2.70;;;;;;;7.71;85.46;98419.50;5549745;32;33703;-58
2023/01/18 10:47:10;;;;;;;4.37;2.70;;;;;;;7.79;85.26;98433.97;5563501;32;34419;-58
2023/01/18 10:50:38;;;;;;;3.85;2.85;;;;;;;7.95;88.72;98443.12;5568998;32;33764;-58
2023/01/18 10:53:40;;;;;;;3.70;2.65;;;;;;;8.15;94.67;98451.66;5569699;32;33727;-58
2023/01/18 10:56:43;;;;;;;4.20;2.42;;;;;;;8.19;89.33;98457.94;5569713;32;34418;-59
2023/01/18 10:59:49;;;;;;;4.18;2.40;;;;;;;8.27;85.21;98478.53;5569471;32;34002;-58
2023/01/18 11:02:54;;;;;;;3.17;2.28;;;;;;;8.47;94.06;98475.28;5567816;32;34866;-58
2023/01/18 11:06:06;;;;;;;4.03;2.65;;;;;;;8.40;82.08;98476.84;5567284;32;33870;-58
2023/01/18 11:09:47;;;;;;;5.37;2.70;;;;;;;8.29;86.26;98484.34;5569191;32;34318;-57
2023/01/18 11:12:51;;;;;;;3.58;2.17;;;;;;;8.38;90.33;98481.72;5568127;32;33701;-58
2023/01/18 11:16:12;;;;;;;3.55;2.50;;;;;;;8.39;81.02;98485.97;5568686;32;33593;-58
2023/01/18 11:19:18;;;;;;;3.97;2.30;;;;;;;8.38;85.14;98490.53;5568245;32;33649;-58
2023/01/18 11:22:23;;;;;;;5.50;2.33;;;;;;;8.31;81.56;98508.84;5569050;32;33745;-57
2023/01/18 11:25:33;;;;;;;3.67;2.47;;;;;;;8.41;82.11;98516.59;5568634;32;33735;-59
2023/01/18 11:28:59;;;;;;;4.12;2.80;;;;;;;8.44;80.90;98510.62;5567135;32;33806;-57
2023/01/18 11:32:05;;;;;;;4.28;2.95;;;;;;;8.55;81.12;98534.38;5559141;32;34272;-58
2023/01/18 11:35:08;;;;;;;;;;;;;;;8.59;88.07;98533.44;5568453;32;33650;-58
2023/01/18 11:38:17;;;;;;;4.47;2.95;;;;;;;8.58;81.50;98525.75;5566818;32;34611;-57
2023/01/18 11:41:22;;;;;;;4.72;2.87;;;;;;;8.64;89.85;98538.63;5569082;32;33676;-58
2023/01/18 11:44:29;;;;;;;3.70;2.53;;;;;;;8.72;82.06;98545.09;5563539;32;33736;-57
2023/01/18 11:48:09;;;;;;;4.60;3.12;;;;;;;8.59;78.29;98543.34;5549652;32;33840;-58
2023/01/18 11:51:37;;;;;;;5.65;3.15;;;;;;;8.62;88.33;98550.72;5564696;32;33739;-58
2023/01/18 11:54:52;;;;;;;4.18;2.78;;;;;;;8.55;79.84;98567.22;5564790;32;33731;-58
2023/01/18 11:57:54;;;;;;;3.70;2.70;;;;;;;8.70;80.85;98568.63;5566917;32;33726;-58
2023/01/18 12:01:31;;;;;;;4.20;2.70;;;;;;;8.58;77.67;98579.16;5567954;32;33648;-58
2023/01/18 12:04:56;;;;;;;5.28;2.60;;;;;;;8.60;77.87;98588.41;5568551;32;34427;-57
2023/01/18 12:08:28;;;;;;;4.25;2.72;;;;;;;8.57;77.41;98591.72;5567100;32;34759;-58
2023/01/18 12:11:43;;;;;;;3.72;2.55;;;;;;;8.63;78.70;98593.13;5543782;31;33537;-59
2023/01/18 12:15:05;;;;;;;4.18;2.95;;;;;;;8.80;82.67;98602.28;5568870;32;33302;-58
2023/01/18 12:18:29;;;;;;;3.87;2.80;;;;;;;8.66;77.39;98605.09;5568316;32;34403;-57
2023/01/18 12:21:44;;;;;;;5.32;2.60;;;;;;;8.70;75.26;98614.06;5568807;32;33832;-57
2023/01/18 12:25:09;;;;;;;4.47;3.00;;;;;;;8.88;76.16;98620.25;5568291;32;34421;-58
2023/01/18 12:28:23;;;;;;;2.33;2.08;;;;;;;9.08;85.61;98630.34;5568738;32;33863;-57
2023/01/18 12:32:03;;;;;;;3.90;2.45;;;;;;;9.02;73.65;98628.13;5568303;32;33793;-57
2023/01/18 12:35:11;;;;;;;3.92;2.53;;;;;;;9.06;74.15;98626.41;5567338;32;33814;-57
2023/01/18 12:38:32;;;;;;;3.30;2.37;;;;;;;9.09;74.92;98639.13;5548643;32;33726;-58
2023/01/18 12:41:50;;;;;;;4.85;2.70;;;;;;;9.32;80.17;98645.91;5560233;32;34500;-58
2023/01/18 12:45:11;;;;;;;3.17;2.20;;;;;;;9.17;74.31;98657.88;5548800;32;33752;-57
2023/01/18 12:48:44;;;;;;;2.65;2.17;;;;;;;9.04;74.84;98661.47;5561941;32;33814;-57
2023/01/18 12:51:53;;;;;;;3.17;2.25;;;;;;;9.01;70.76;98656.75;5566705;32;34447;-58
2023/01/18 12:55:02;;;;;;;4.32;2.90;;;;;;;8.90;76.54;98661.56;5565766;32;34504;-58
2023/01/18 12:58:07;;;;;;;3.72;2.50;;;;;;;9.04;74.92;98669.50;5561067;32;34360;-58
2023/01/18 13:01:17;;;;;;;4.03;2.78;;;;;;;9.38;85.07;98671.41;5555926;32;33714;-57
2023/01/18 13:04:26;;;;;;;3.12;2.35;;;;;;;9.22;73.22;98680.97;5557113;32;34888;-58
2023/01/18 13:07:37;;;;;;;4.30;2.70;;;;;;;9.24;72.13;98689.50;5559691;32;33857;-58
2023/01/18 13:10:41;;;;;;;4.07;2.53;;;;;;;9.18;73.13;98696.88;5567813;32;34475;-58
2023/01/18 13:13:44;;;;;;;5.60;2.95;;;;;;;9.25;72.86;98704.44;5567724;32;34333;-58
2023/01/18 13:17:00;;;;;;;3.87;2.80;;;;;;;9.28;80.23;98706.47;5567470;32;34479;-58
2023/01/18 13:20:11;;;;;;;4.53;2.97;;;;;;;9.35;78.08;98712.16;5561197;32;33765;-58
2023/01/18 13:23:31;;;;;;;4.87;2.75;;;;;;;9.21;80.66;98732.09;5559695;32;33630;-58
2023/01/18 13:26:34;;;;;;;3.97;2.70;;;;;;;9.38;86.30;98738.28;5563842;32;33326;-58
2023/01/18 13:29:38;;;;;;;4.50;3.75;;;;;;;9.33;78.30;98743.75;5560539;32;33666;-57
2023/01/18 13:32:43;;;;;;;5.85;4.47;;;;;;;9.34;90.31;98755.25;5561521;32;33311;-57
2023/01/18 13:36:00;;;;;;;5.67;4.63;;;;;;;9.39;96.51;98758.56;5559142;32;34451;-58
2023/01/18 13:39:09;;;;;;;;;;;;;;;9.48;83.08;98757.81;5565963;32;33689;-57
2023/01/18 13:42:23;;;;;;;11.35;5.60;;;;;;;9.39;81.10;98758.56;5561959;32;33723;-58
2023/01/18 13:45:28;;;;;;;7.68;6.43;;;;;;;9.45;82.58;98750.41;5550206;32;34149;-57
2023/01/18 13:48:46;;;;;;;9.18;6.68;;;;;;;9.44;83.70;98746.13;5550432;32;33714;-58
2023/01/18 13:51:52;;;;;;;5.28;3.22;;;;;;;9.35;82.18;98738.09;5550693;32;35225;-59
2023/01/18 13:54:57;;;;;;;5.12;2.90;;;;;;;9.45;92.14;98737.81;5549964;32;33819;-58
2023/01/18 13:58:00;;;;;;;6.00;3.78;;;;;;;9.43;80.51;98747.25;5550483;32;33758;-57
2023/01/18 14:01:06;;;;;;;6.15;3.58;;;;;;;9.31;79.77;98758.56;5549929;32;34498;-57
2023/01/18 14:04:30;;;;;;;7.45;3.08;;;;;;;9.26;81.74;98762.16;5550467;32;34346;-58
2023/01/18 14:07:43;;;;;;;4.22;3.25;;;;;;;9.31;77.69;98772.72;5550317;32;34351;-57
2023/01/18 14:10:47;;;;;;;6.70;5.18;;;;;;;9.35;86.43;98767.53;5550117;32;33624;-58
2023/01/18 14:13:49;;;;;;;3.87;2.53;;;;;;;9.43;83.22;98784.69;5552534;32;33965;-58
2023/01/18 14:17:15;;;;;;;4.03;3.00;;;;;;;9.33;78.28;98778.53;5567421;32;32997;-58
2023/01/18 14:20:54;;;;;;;2.87;2.22;;;;;;;9.41;79.04;98783.13;5562053;32;32381;-58
2023/01/18 14:24:10;;;;;;;3.92;2.70;;;;;;;9.47;82.12;98789.13;5561178;32;33239;-59
2023/01/18 14:27:16;;;;;;;3.62;2.60;;;;;;;9.29;77.89;98796.28;5569141;32;33806;-58
2023/01/18 14:30:34;;;;;;;3.12;2.58;;;;;;;9.36;85.51;98803.84;5565081;32;34401;-57
2023/01/18 14:33:40;;;;;;;5.65;4.40;;;;;;;9.38;78.64;98799.78;5568665;32;33662;-58
2023/01/18 14:36:42;;;;;;;4.70;3.25;;;;;;;9.30;81.67;98800.53;5569540;32;34390;-58
2023/01/18 14:39:45;;;;;;;4.35;3.33;;;;;;;9.31;77.39;98802.13;5569741;31;33538;-58
2023/01/18 14:42:51;;;;;;;5.00;3.37;;;;;;;9.31;77.52;98804.81;5569371;32;33781;-58
2023/01/18 14:46:01;;;;;;;5.60;3.30;;;;;;;9.19;81.71;98823.31;5569862;32;33722;-58
2023/01/18 14:49:03;;;;;;;4.55;3.17;;;;;;;9.16;81.34;98834.63;5561626;32;34463;-57
2023/01/18 14:52:06;;;;;;;3.15;2.65;;;;;;;9.12;80.03;98825.66;5550136;32;33599;-58
2023/01/18 14:55:27;;;;;;;6.00;3.17;;;;;;;9.18;79.60;98829.75;5548456;32;34310;-58
2023/01/18 14:58:34;;;;;;;8.25;3.92;;;;;;;9.05;85.17;98820.75;5549824;32;33703;-57
2023/01/18 15:01:38;;;;;;;5.18;3.90;;;;;;;9.00;81.79;98830.75;5549743;32;33664;-58
2023/01/18 15:04:44;;;;;;;4.70;3.35;;;;;;;9.04;82.17;98818.34;5549612;32;34484;-58
2023/01/18 15:07:52;;;;;;;4.17;2.93;;;;;;;9.05;91.08;98817.28;5549114;32;34336;-58
2023/01/18 15:10:56;;;;;;;6.10;3.35;;;;;;;9.00;82.19;98814.72;5549963;32;33758;-58
2023/01/18 15:13:59;;;;;;;4.55;3.67;;;;;;;8.95;83.70;98810.31;5549984;32;34312;-58
2023/01/18 15:17:06;;;;;;;5.22;4.30;;;;;;;8.89;89.60;98814.22;5553160;32;34573;-58
2023/01/18 15:20:13;;;;;;;6.25;4.40;;;;;;;8.84;82.45;98814.34;5569282;32;34492;-57
2023/01/18 15:23:16;;;;;;;6.25;4.00;;;;;;;8.77;88.22;98803.28;5568938;32;34022;-57
2023/01/18 15:26:33;;;;;;;8.85;3.78;;;;;;;8.74;83.37;98803.91;5569823;32;33708;-58
2023/01/18 15:29:35;;;;;;;;;;;;;;;8.71;83.65;98813.34;5569484;32;33830;-57
2023/01/18 15:32:38;;;;;;;6.55;3.80;;;;;;;8.74;82.25;98815.41;5569343;32;33922;-58
2023/01/18 15:35:40;;;;;;;10.32;4.57;;;;;;;8.65;82.43;98807.34;5569390;32;33744;-58
2023/01/18 15:38:43;;;;;;;5.87;4.10;;;;;;;8.53;82.95;98812.44;5569183;32;34444;-58
2023/01/18 15:41:45;;;;;;;9.25;4.30;;;;;;;8.55;83.74;98830.84;5569159;32;33733;-57
2023/01/18 15:44:51;;;;;;;7.43;4.45;;;;;;;8.53;84.12;98849.03;5567975;32;33786;-58
2023/01/18 15:47:57;;;;;;;8.02;4.28;;;;;;;8.56;82.89;98843.09;5569418;32;34411;-57
2023/01/18 15:51:07;;;;;;;7.53;4.55;;;;;;;8.56;83.33;98862.56;5568902;32;33867;-58
2023/01/18 15:54:18;;;;;;;6.15;4.90;;;;;;;8.54;81.89;98869.31;5568277;32;33636;-58
2023/01/18 15:57:21;;;;;;;7.87;5.40;;;;;;;8.45;82.38;98869.25;5567938;32;34387;-57
2023/01/18 16:00:39;;;;;;;10.35;5.30;;;;;;;8.49;83.09;98866.78;5567389;32;33112;-58
2023/01/18 16:03:48;;;;;;;12.82;6.30;;;;;;;8.46;85.07;98868.16;5568397;31;33800;-57
2023/01/18 16:06:50;;;;;;;13.40;7.20;;;;;;;8.47;85.80;98870.50;5568899;32;33774;-58
2023/01/18 16:10:26;;;;;;;18.60;7.78;;;;;;;8.44;84.51;98863.13;5569001;32;34284;-57
2023/01/18 16:13:37;;;;;;;13.95;6.85;;;;;;;8.51;85.36;98881.41;5568923;32;33812;-57
2023/01/18 16:16:41;;;;;;;14.55;6.62;;;;;;;8.49;85.10;98896.94;5568654;32;33670;-59
2023/01/18 16:19:49;;;;;;;15.57;7.93;;;;;;;8.26;90.61;98893.41;5568761;32;34463;-58
2023/01/18 16:23:01;;;;;;;14.87;6.75;;;;;;;8.35;86.84;98901.50;5568728;32;34323;-58
2023/01/18 16:26:04;;;;;;;12.80;6.28;;;;;;;8.30;88.18;98904.28;5568844;32;33641;-58
2023/01/18 16:29:07;;;;;;;11.70;6.43;;;;;;;8.38;90.31;98907.06;5568527;32;33705;-58
2023/01/18 16:32:22;;;;;;;9.85;5.70;;;;;;;8.46;86.45;98908.22;5568972;32;34326;-58
2023/01/18 16:35:24;;;;;;;8.30;5.80;;;;;;;8.42;87.31;98904.56;5568758;32;33932;-57
2023/01/18 16:38:26;;;;;;;8.38;6.07;;;;;;;8.39;87.20;98905.19;5568769;32;33918;-57
2023/01/18 16:41:30;;;;;;;13.15;5.93;;;;;;;8.57;85.31;98898.06;5568478;32;33622;-58
2023/01/18 16:44:33;;;;;;;12.50;6.22;;;;;;;8.44;99.21;98905.84;5568467;32;33345;-57
2023/01/18 16:47:35;;;;;;;9.85;5.93;;;;;;;8.28;92.22;98899.25;5568405;32;34411;-57
2023/01/18 16:50:37;;;;;;;9.32;6.28;;;;;;;8.35;90.21;98896.94;5568581;32;33711;-58
2023/01/18 16:53:40;;;;;;;11.55;5.65;;;;;;;8.19;92.70;98898.38;5568010;32;33784;-57
2023/01/18 16:56:45;;;;;;;11.50;5.75;;;;;;;8.29;90.92;98898.16;5568269;32;33795;-58
2023/01/18 16:59:48;;;;;;;10.53;6.30;;;;;;;8.37;89.89;98909.97;5567160;32;34100;-59
2023/01/18 17:02:52;;;;;;;12.37;6.30;;;;;;;8.33;94.55;98917.81;5568269;32;34362;-59
2023/01/18 17:05:54;;;;;;;11.88;5.47;;;;;;;8.28;91.40;98917.94;5567696;32;33794;-58
2023/01/18 17:08:56;;;;;;;10.32;6.35;;;;;;;8.36;91.51;98927.09;5567726;32;34305;-58
2023/01/18 17:11:59;;;;;;;8.77;6.00;;;;;;;8.43;90.34;98920.28;5568273;32;34451;-58
2023/01/18 17:15:01;;;;;;;10.13;6.12;;;;;;;8.44;89.23;98916.53;5568194;32;34230;-57
2023/01/18 17:18:04;;;;;;;12.13;7.03;;;;;;;8.20;98.74;98895.37;5568243;32;33778;-57
2023/01/18 17:21:09;;;;;;;16.50;8.10;;;;;;;8.34;91.48;98923.94;5568056;32;33752;-58
2023/01/18 17:24:11;;;;;;;9.85;7.32;;;;;;;8.59;86.82;98936.75;5568166;32;33668;-57
2023/01/18 17:27:13;;;;;;;9.07;6.75;;;;;;;8.30;93.47;98926.41;5567761;32;33667;-57
2023/01/18 17:30:19;;;;;;;12.20;8.23;;;;;;;8.16;95.28;98952.34;5567918;32;34463;-57
2023/01/18 17:33:24;;;;;;;12.40;8.27;;;;;;;8.32;92.12;98966.19;5567799;32;33734;-58
2023/01/18 17:36:26;;;;;;;11.12;8.35;;;;;;;8.43;90.23;98967.56;5567939;32;33684;-57
2023/01/18 17:39:28;;;;;;;14.30;8.48;;;;;;;8.23;97.70;98960.75;5567563;32;33685;-57
2023/01/18 17:42:51;;;;;;;11.48;8.65;;;;;;;8.30;91.81;98963.78;5567361;32;33787;-57
2023/01/18 17:45:55;;;;;;;13.52;9.13;;;;;;;8.62;89.40;98989.59;5566322;32;33746;-58
2023/01/18 17:49:03;;;;;;;11.85;9.73;;;;;;;8.45;98.13;99019.59;5566418;32;34154;-57
2023/01/18 17:52:06;;;;;;;17.10;10.30;;;;;;;8.36;94.71;99015.22;5567582;32;33657;-57
2023/01/18 17:55:13;;;;;;;13.23;10.00;;;;;;;8.24;95.74;99005.03;5567016;32;33707;-57
2023/01/18 17:58:17;;;;;;;17.50;12.25;;;;;;;8.61;90.58;99019.25;5566384;32;34351;-57
2023/01/18 18:01:20;;;;;;;17.75;11.65;;;;;;;8.60;90.06;99023.03;5566750;32;34150;-57
2023/01/18 18:04:22;;;;;;;19.40;12.45;;;;;;;8.53;100.00;99026.09;5567308;32;33674;-58
